Terminal Aerodrome Forecast
Issued by NWS Rapid City, SD

Home | Current Version | Previous Version | Text Only | Print | Product List | Glossary On
Versions: 1 2 3 4 5 6 7 8 9 10 11 12 13 14 15 16 17
000
FTUS43 KUNR 232320
TAFRAP
TAF
KRAP 232320Z 2400/2424 35015KT P6SM OVC004
      TEMPO 2400/2404 2SM BR
     FM240600 36012KT 4SM -SN OVC004
     FM240900 34012KT 1 1/2SM -SN OVC004
     FM241200 34024G34KT 1/2SM SN BLSN OVC003=

USA.gov is the U.S. government's official web portal to all federal, state and local government web resources and services.